createdAt,value
2023-05-25T00:03:31.377Z,98383.72
2023-05-25T00:08:55.466Z,98382.97
2023-05-25T00:14:16.190Z,98382.44
2023-05-25T00:19:37.737Z,98382.25
2023-05-25T00:24:58.410Z,98383.16
2023-05-25T00:30:19.205Z,98384.47
2023-05-25T00:35:39.710Z,98382.66
2023-05-25T00:41:00.518Z,98379.94
2023-05-25T00:46:21.106Z,98370.91
2023-05-25T00:51:42.192Z,98379.84
2023-05-25T00:57:04.304Z,98379.38
2023-05-25T01:02:26.053Z,98376.09
2023-05-25T01:07:46.927Z,98384.28
2023-05-25T01:13:07.700Z,98379.81
2023-05-25T01:18:29.271Z,98381.56
2023-05-25T01:24:08.500Z,98388.28
2023-05-25T01:29:29.361Z,98380.16
2023-05-25T01:34:49.936Z,98380.38
2023-05-25T01:40:11.498Z,98381.50
2023-05-25T01:45:32.995Z,98383.97
2023-05-25T01:51:01.548Z,98393.84
2023-05-25T01:56:23.288Z,98395.56
2023-05-25T02:01:44.341Z,98394.06
2023-05-25T02:07:05.122Z,98384.06
2023-05-25T02:12:25.936Z,98378.34
2023-05-25T02:17:46.568Z,98378.34
2023-05-25T02:23:07.167Z,98397.31
2023-05-25T02:28:27.710Z,98399.75
2023-05-25T02:33:48.981Z,98398.50
2023-05-25T02:39:10.282Z,98398.16
2023-05-25T02:44:32.008Z,98411.69
2023-05-25T02:49:52.644Z,98414.13
2023-05-25T02:55:14.602Z,98430.25
2023-05-25T03:00:37.943Z,98419.84
2023-05-25T03:05:58.623Z,98426.72
2023-05-25T03:11:19.161Z,98429.84
2023-05-25T03:16:40.873Z,98416.47
2023-05-25T03:22:02.967Z,98410.59
2023-05-25T03:27:24.761Z,98410.16
2023-05-25T03:32:46.333Z,98420.13
2023-05-25T03:38:07.091Z,98434.69
2023-05-25T03:43:27.626Z,98431.63
2023-05-25T03:48:48.754Z,98446.56
2023-05-25T03:54:09.473Z,98452.41
2023-05-25T03:59:30.845Z,98445.38
2023-05-25T04:04:53.797Z,98451.13
2023-05-25T04:10:14.775Z,98459.97
2023-05-25T04:15:35.526Z,98471.16
2023-05-25T04:21:01.657Z,98458.81
2023-05-25T04:26:22.229Z,98467.22
2023-05-25T04:31:47.370Z,98466.84
2023-05-25T04:37:09.104Z,98472.72
2023-05-25T04:42:31.433Z,98467.78
2023-05-25T04:47:52.712Z,98464.75
2023-05-25T04:53:13.311Z,98472.78
2023-05-25T04:58:34.433Z,98471.84
2023-05-25T05:03:55.606Z,98472.81
2023-05-25T05:09:17.617Z,98472.88
2023-05-25T05:14:39.104Z,98486.75
2023-05-25T05:20:00.401Z,98486.00
2023-05-25T05:25:21.415Z,98484.19
2023-05-25T05:30:42.039Z,98487.00
2023-05-25T05:36:04.734Z,98498.91
2023-05-25T05:41:25.480Z,98496.66
2023-05-25T05:46:46.299Z,98498.34
2023-05-25T05:52:11.089Z,98510.72
2023-05-25T05:57:32.320Z,98511.69
2023-05-25T06:02:54.170Z,98512.94
2023-05-25T06:08:19.093Z,98528.09
2023-05-25T06:13:39.716Z,98524.69
2023-05-25T06:19:00.326Z,98528.91
2023-05-25T06:24:21.409Z,98526.50
2023-05-25T06:29:41.952Z,98533.38
2023-05-25T06:35:03.352Z,98525.44
2023-05-25T06:40:24.321Z,98531.13
2023-05-25T06:45:45.239Z,98523.38
2023-05-25T06:51:06.190Z,98527.50
2023-05-25T06:56:27.965Z,98532.19
2023-05-25T07:01:48.705Z,98545.31
2023-05-25T07:07:09.710Z,98532.63
2023-05-25T07:12:30.520Z,98531.19
2023-05-25T07:17:51.231Z,98532.84
2023-05-25T07:23:11.717Z,98545.97
2023-05-25T07:28:32.494Z,98533.88
2023-05-25T07:33:55.375Z,98530.91
2023-05-25T07:39:16.157Z,98538.50
2023-05-25T07:44:36.730Z,98537.81
2023-05-25T07:49:57.399Z,98546.75
2023-05-25T07:55:19.200Z,98538.88
2023-05-25T08:00:39.779Z,98543.72
2023-05-25T08:06:00.520Z,98537.34
2023-05-25T08:11:23.632Z,98557.84
2023-05-25T08:16:44.736Z,98554.03
2023-05-25T08:22:05.938Z,98559.06
2023-05-25T08:27:26.793Z,98551.19
2023-05-25T08:32:47.515Z,98540.69
2023-05-25T08:38:09.179Z,98543.72
2023-05-25T08:43:30.736Z,98538.63
2023-05-25T08:48:51.649Z,98541.69
2023-05-25T08:54:13.547Z,98535.72
2023-05-25T09:00:04.176Z,98527.00
2023-05-25T09:05:26.081Z,98541.81
2023-05-25T09:10:47.187Z,98533.22
2023-05-25T09:16:08.093Z,98549.91
2023-05-25T09:21:29.026Z,98542.28
2023-05-25T09:26:50.206Z,98545.53
2023-05-25T09:32:11.520Z,98539.94
2023-05-25T09:37:33.051Z,98539.13
2023-05-25T09:42:54.208Z,98531.72
2023-05-25T09:48:15.964Z,98544.34
2023-05-25T09:53:37.244Z,98535.16
2023-05-25T09:58:58.544Z,98538.53
2023-05-25T10:04:19.937Z,98532.63
2023-05-25T10:09:44.356Z,98545.81
2023-05-25T10:15:06.427Z,98532.00
2023-05-25T10:20:29.705Z,98535.13
2023-05-25T10:25:54.305Z,98529.38
2023-05-25T10:31:15.543Z,98526.59
2023-05-25T10:36:36.951Z,98525.81
2023-05-25T10:41:58.245Z,98511.25
2023-05-25T10:47:19.936Z,98505.22
2023-05-25T10:52:41.076Z,98510.91
2023-05-25T10:58:09.754Z,98499.38
2023-05-25T11:03:56.864Z,98498.25
2023-05-25T11:09:25.107Z,98499.28
2023-05-25T11:14:45.932Z,98501.13
2023-05-25T11:20:08.918Z,98494.84
2023-05-25T11:25:37.362Z,98486.84
2023-05-25T11:30:59.706Z,98478.88
2023-05-25T11:36:21.517Z,98485.63
2023-05-25T11:41:47.890Z,98489.03
2023-05-25T11:47:19.053Z,98479.50
2023-05-25T11:52:40.341Z,98472.59
2023-05-25T11:58:01.583Z,98465.94
2023-05-25T12:03:32.150Z,98471.31
2023-05-25T12:08:54.169Z,98467.34
2023-05-25T12:14:15.608Z,98465.47
2023-05-25T12:19:36.523Z,98460.47
2023-05-25T12:24:57.768Z,98461.75
2023-05-25T12:30:19.450Z,98455.28
2023-05-25T12:35:47.773Z,98451.97
2023-05-25T12:41:08.885Z,98445.59
2023-05-25T12:46:29.944Z,98450.53
2023-05-25T12:51:50.933Z,98446.47
2023-05-25T12:57:16.522Z,98430.50
2023-05-25T13:02:38.268Z,98440.84
2023-05-25T13:07:59.518Z,98444.22
2023-05-25T13:13:21.154Z,98446.91
2023-05-25T13:18:42.768Z,98431.09
2023-05-25T13:24:04.392Z,98433.84
2023-05-25T13:29:26.332Z,98428.81
2023-05-25T13:34:47.672Z,98423.47
2023-05-25T13:40:09.136Z,98410.34
2023-05-25T13:45:30.222Z,98418.16
2023-05-25T13:50:51.548Z,98410.22
2023-05-25T13:56:12.299Z,98414.09
2023-05-25T14:01:34.508Z,98414.03
2023-05-25T14:06:56.687Z,98407.84
2023-05-25T14:12:17.681Z,98407.09
2023-05-25T14:17:39.987Z,98401.50
2023-05-25T14:23:01.896Z,98401.38
2023-05-25T14:28:22.758Z,98388.59
2023-05-25T14:33:44.409Z,98395.34
2023-05-25T14:39:05.801Z,98397.03
2023-05-25T14:44:26.741Z,98390.16
2023-05-25T14:49:48.026Z,98387.19
2023-05-25T14:55:09.342Z,98397.47
2023-05-25T15:00:31.050Z,98394.59
2023-05-25T15:05:51.914Z,98374.78
2023-05-25T15:11:12.739Z,98381.84
2023-05-25T15:16:33.607Z,98385.13
2023-05-25T15:21:54.839Z,98380.84
2023-05-25T15:27:15.741Z,98367.94
2023-05-25T15:32:36.647Z,98373.84
2023-05-25T15:38:01.425Z,98360.63
2023-05-25T15:43:22.634Z,98359.44
2023-05-25T15:48:43.192Z,98364.69
2023-05-25T15:54:03.689Z,98372.56
2023-05-25T15:59:24.353Z,98372.91
2023-05-25T16:04:45.379Z,98368.25
2023-05-25T16:10:06.673Z,98367.28
2023-05-25T16:15:27.460Z,98362.09
2023-05-25T16:20:49.237Z,98366.38
2023-05-25T16:26:10.422Z,98359.97
2023-05-25T16:31:31.488Z,98358.47
2023-05-25T16:36:52.211Z,98347.91
2023-05-25T16:42:12.920Z,98351.41
2023-05-25T16:47:34.092Z,98355.53
2023-05-25T16:52:55.142Z,98356.13
2023-05-25T16:58:16.421Z,98350.56
2023-05-25T17:03:38.033Z,98361.34
2023-05-25T17:08:59.010Z,98351.28
2023-05-25T17:14:19.915Z,98357.88
2023-05-25T17:19:41.241Z,98355.81
2023-05-25T17:25:01.947Z,98360.81
2023-05-25T17:30:22.645Z,98366.03
2023-05-25T17:35:43.634Z,98366.94
2023-05-25T17:41:04.729Z,98367.78
2023-05-25T17:46:25.686Z,98358.66
2023-05-25T17:51:46.699Z,98367.75
2023-05-25T17:57:07.917Z,98368.00
2023-05-25T18:02:30.332Z,98371.41
2023-05-25T18:07:51.324Z,98379.06
2023-05-25T18:13:11.986Z,98376.88
2023-05-25T18:18:32.672Z,98377.06
2023-05-25T18:23:53.409Z,98386.13
2023-05-25T18:29:14.313Z,98383.25
2023-05-25T18:34:35.182Z,98382.38
2023-05-25T18:39:55.824Z,98397.28
2023-05-25T18:45:16.786Z,98392.84
2023-05-25T18:50:39.162Z,98399.75
2023-05-25T18:56:00.675Z,98403.13
2023-05-25T19:01:22.072Z,98412.31
2023-05-25T19:06:42.808Z,98410.00
2023-05-25T19:12:04.712Z,98428.28
2023-05-25T19:17:25.723Z,98417.50
2023-05-25T19:22:46.657Z,98425.91
2023-05-25T19:28:07.493Z,98441.38
2023-05-25T19:33:28.330Z,98444.38
2023-05-25T19:38:49.401Z,98442.34
2023-05-25T19:44:10.624Z,98439.50
2023-05-25T19:49:31.822Z,98443.69
2023-05-25T19:54:52.930Z,98447.41
2023-05-25T20:00:21.174Z,98455.59
2023-05-25T20:05:46.848Z,98446.69
2023-05-25T20:11:07.927Z,98451.50
2023-05-25T20:16:28.790Z,98452.38
2023-05-25T20:21:49.288Z,98460.47
2023-05-25T20:27:09.973Z,98458.38
2023-05-25T20:32:30.643Z,98462.66
2023-05-25T20:37:51.408Z,98474.41
2023-05-25T20:43:13.814Z,98479.53
2023-05-25T20:48:34.789Z,98487.47
2023-05-25T20:53:56.843Z,98489.91
2023-05-25T20:59:17.390Z,98487.81
2023-05-25T21:04:38.083Z,98486.44
2023-05-25T21:10:01.576Z,98483.97
2023-05-25T21:15:22.296Z,98488.50
2023-05-25T21:20:43.770Z,98497.16
2023-05-25T21:26:04.377Z,98493.09
2023-05-25T21:31:25.267Z,98485.75
2023-05-25T21:36:45.716Z,98487.44
2023-05-25T21:42:06.826Z,98496.66
2023-05-25T21:47:27.414Z,98510.44
2023-05-25T21:52:48.042Z,98510.06
2023-05-25T21:58:08.730Z,98504.31
2023-05-25T22:03:29.489Z,98519.88
2023-05-25T22:08:49.988Z,98518.00
2023-05-25T22:14:10.681Z,98526.75
2023-05-25T22:19:31.201Z,98520.75
2023-05-25T22:24:51.645Z,98530.22
2023-05-25T22:30:12.464Z,98535.28
2023-05-25T22:35:34.651Z,98536.25
2023-05-25T22:40:55.271Z,98533.03
2023-05-25T22:46:17.277Z,98534.66
2023-05-25T22:51:37.880Z,98531.59
2023-05-25T22:56:58.436Z,98539.00
2023-05-25T23:02:19.273Z,98540.91
2023-05-25T23:07:39.868Z,98538.16
2023-05-25T23:13:01.077Z,98537.91
2023-05-25T23:18:21.829Z,98546.91
2023-05-25T23:23:42.723Z,98542.34
2023-05-25T23:29:03.531Z,98548.53
2023-05-25T23:34:24.595Z,98554.16
2023-05-25T23:39:45.155Z,98545.91
2023-05-25T23:45:08.175Z,98544.72
2023-05-25T23:50:29.052Z,98546.50
2023-05-25T23:55:49.629Z,98548.44
